LELN/LEN METAR and TAF weather

Enter ICAO airport designator
Station Type Date Time Source
LELN METAR 2018/12/11 18:00 UTC NOAA

LELN 111800Z 07002KT CAVOK 07/03 Q1021


Station Type Date Time Source
LELN Decoded METAR 2018/12/11 18:00 UTC NOAA

Leon / Virgen Del Camino, Spain (LELN) 42-35N 005-39W 914M
Dec 11, 2018 - 01:00 PM EST / 2018.12.11 1800 UTC
Wind: from the ENE (070 degrees) at 2 MPH (2 KT):0
Visibility: greater than 7 mile(s):0
Temperature: 44 F (7 C)
Dew Point: 37 F (3 C)
Relative Humidity: 75%
Pressure (altimeter): 30.15 in. Hg (1021 hPa)
ob: LELN 111800Z 07002KT CAVOK 07/03 Q1021
cycle: 18

Station Type Date Time Source
LELN TAF 2018/03/28 12:27 UTC NOAA

TAF LELN 281100Z 2812/2824 27015KT CAVOK
TEMPO 2814/2821 27015G26KT
BECMG 2822/2824 31010KT PROB40
TEMPO 2815/2824 RA BKN030


Example: see airport list